createdAt,value
2019-01-18T00:01:33.699Z,79.81
2019-01-18T00:04:04.347Z,80.48
2019-01-18T00:06:34.970Z,81.44
2019-01-18T00:09:06.934Z,81.82
2019-01-18T00:11:39.246Z,82.28
2019-01-18T00:14:09.841Z,82.26
2019-01-18T00:16:40.484Z,82.67
2019-01-18T00:19:11.114Z,83.19
2019-01-18T00:21:41.675Z,83.75
2019-01-18T00:24:12.367Z,83.56
2019-01-18T00:26:42.924Z,83.73
2019-01-18T00:29:13.623Z,83.90
2019-01-18T00:31:44.274Z,83.61
2019-01-18T00:34:14.898Z,83.77
2019-01-18T00:36:45.532Z,83.93
2019-01-18T00:39:16.173Z,83.98
2019-01-18T00:41:46.835Z,83.93
2019-01-18T00:44:17.445Z,83.61
2019-01-18T00:46:48.045Z,83.65
2019-01-18T00:49:18.594Z,83.37
2019-01-18T00:51:48.838Z,82.98
2019-01-18T00:54:19.447Z,83.12
2019-01-18T00:56:49.974Z,83.57
2019-01-18T00:59:20.604Z,82.68
2019-01-18T01:01:51.142Z,82.61
2019-01-18T01:04:21.424Z,82.96
2019-01-18T01:06:51.964Z,82.48
2019-01-18T01:09:22.513Z,83.33
2019-01-18T01:11:53.153Z,83.04
2019-01-18T01:14:23.674Z,83.57
2019-01-18T01:16:54.208Z,83.14
2019-01-18T01:19:24.754Z,83.78
2019-01-18T01:21:55.386Z,83.66
2019-01-18T01:24:26.011Z,84.25
2019-01-18T01:26:56.728Z,84.27
2019-01-18T01:29:27.366Z,83.93
2019-01-18T01:31:58.104Z,84.61
2019-01-18T01:34:28.503Z,83.89
2019-01-18T01:36:59.054Z,84.05
2019-01-18T01:39:29.363Z,84.20
2019-01-18T01:41:59.994Z,84.98
2019-01-18T01:44:30.636Z,84.62
2019-01-18T01:47:01.093Z,83.26
2019-01-18T01:49:31.706Z,83.06
2019-01-18T01:52:02.187Z,83.57
2019-01-18T01:54:33.771Z,84.12
2019-01-18T01:57:04.101Z,84.04
2019-01-18T01:59:34.324Z,83.09
2019-01-18T02:02:04.867Z,82.96
2019-01-18T02:04:35.409Z,81.09
2019-01-18T02:07:05.693Z,81.28
2019-01-18T02:09:36.365Z,81.11
2019-01-18T02:12:06.606Z,81.82
2019-01-18T02:14:37.311Z,82.10
2019-01-18T02:17:07.595Z,82.78
2019-01-18T02:19:38.197Z,82.94
2019-01-18T02:22:08.919Z,83.82
2019-01-18T02:24:39.532Z,84.15
2019-01-18T02:27:10.062Z,84.82
2019-01-18T02:29:40.695Z,85.18
2019-01-18T02:32:14.253Z,85.26
2019-01-18T02:34:45.023Z,84.69
2019-01-18T02:37:18.509Z,84.78
2019-01-18T02:39:49.078Z,84.23
2019-01-18T02:42:19.685Z,85.25
2019-01-18T02:44:50.582Z,85.80
2019-01-18T02:47:21.283Z,86.25
2019-01-18T02:49:51.884Z,85.95
2019-01-18T02:52:22.444Z,85.26
2019-01-18T02:54:53.147Z,84.69
2019-01-18T02:57:23.672Z,84.71
2019-01-18T02:59:54.432Z,84.43
2019-01-18T03:02:25.044Z,84.68
2019-01-18T03:04:55.672Z,84.40
2019-01-18T03:07:26.200Z,84.67
2019-01-18T03:09:56.753Z,84.88
2019-01-18T03:12:27.367Z,85.04
2019-01-18T03:14:57.890Z,84.92
2019-01-18T03:17:28.159Z,85.31
2019-01-18T03:19:58.747Z,85.36
2019-01-18T03:22:29.390Z,85.37
2019-01-18T03:24:59.995Z,85.14
2019-01-18T03:27:30.529Z,84.67
2019-01-18T03:30:01.163Z,84.71
2019-01-18T03:32:31.723Z,84.64
2019-01-18T03:35:01.941Z,84.39
2019-01-18T03:37:32.547Z,84.20
2019-01-18T03:40:03.614Z,84.23
2019-01-18T03:42:34.123Z,83.49
2019-01-18T03:45:07.681Z,83.07
2019-01-18T03:47:38.253Z,83.44
2019-01-18T03:50:12.002Z,83.39
2019-01-18T03:52:42.711Z,83.18
2019-01-18T03:55:13.425Z,83.23
2019-01-18T03:57:44.078Z,83.42
2019-01-18T04:00:26.655Z,82.86
2019-01-18T04:02:57.704Z,83.53
2019-01-18T04:05:28.360Z,82.87
2019-01-18T04:07:58.967Z,82.87
2019-01-18T04:10:29.811Z,82.75
2019-01-18T04:13:00.342Z,82.97
2019-01-18T04:15:30.866Z,83.42
2019-01-18T04:18:01.412Z,83.56
2019-01-18T04:20:32.029Z,82.89
2019-01-18T04:23:02.659Z,82.80
2019-01-18T04:25:33.394Z,82.79
2019-01-18T04:28:03.930Z,82.11
2019-01-18T04:30:34.659Z,82.30
2019-01-18T04:33:05.192Z,82.42
2019-01-18T04:35:35.823Z,82.41
2019-01-18T04:38:06.074Z,82.28
2019-01-18T04:40:36.670Z,82.62
2019-01-18T04:43:07.313Z,83.04
2019-01-18T04:45:37.529Z,82.52
2019-01-18T04:48:08.055Z,82.83
2019-01-18T04:50:38.281Z,82.59
2019-01-18T04:53:08.476Z,82.84
2019-01-18T04:55:39.033Z,82.64
2019-01-18T04:58:09.569Z,83.09
2019-01-18T05:00:41.458Z,83.02
2019-01-18T05:03:12.573Z,83.70
2019-01-18T05:05:42.847Z,81.94
2019-01-18T05:08:13.452Z,81.01
2019-01-18T05:10:44.049Z,80.63
2019-01-18T05:13:15.306Z,80.01
2019-01-18T05:15:46.143Z,79.71
2019-01-18T05:18:16.767Z,79.58
2019-01-18T05:20:47.305Z,79.98
2019-01-18T05:23:17.947Z,79.86
2019-01-18T05:25:48.552Z,79.52
2019-01-18T05:28:19.208Z,79.22
2019-01-18T05:30:49.732Z,79.00
2019-01-18T05:33:19.899Z,78.55
2019-01-18T05:35:50.452Z,77.51
2019-01-18T05:38:20.655Z,76.82
2019-01-18T05:40:51.332Z,76.70
2019-01-18T05:43:21.971Z,76.26
2019-01-18T05:45:52.492Z,75.76
2019-01-18T05:48:23.238Z,76.79
2019-01-18T05:50:53.752Z,76.08
2019-01-18T05:53:24.779Z,76.67
2019-01-18T05:55:55.408Z,76.47
2019-01-18T05:58:25.689Z,76.28
2019-01-18T06:00:58.041Z,76.22
2019-01-18T06:03:28.661Z,76.15
2019-01-18T06:05:59.281Z,75.67
2019-01-18T06:08:29.809Z,75.99
2019-01-18T06:11:00.443Z,74.60
2019-01-18T06:13:30.978Z,75.44
2019-01-18T06:16:01.604Z,75.26
2019-01-18T06:18:32.141Z,74.62
2019-01-18T06:21:03.273Z,74.05
2019-01-18T06:23:33.921Z,74.62
2019-01-18T06:26:04.571Z,74.94
2019-01-18T06:28:35.768Z,74.04
2019-01-18T06:31:06.042Z,73.68
2019-01-18T06:33:36.650Z,74.05
2019-01-18T06:36:07.305Z,73.60
2019-01-18T06:38:38.600Z,74.06
2019-01-18T06:41:15.433Z,74.60
2019-01-18T06:43:45.921Z,74.37
2019-01-18T06:46:18.548Z,74.14
2019-01-18T06:48:50.083Z,74.42
2019-01-18T06:51:22.706Z,73.86
2019-01-18T06:53:53.267Z,73.64
2019-01-18T06:56:23.932Z,74.61
2019-01-18T06:58:54.636Z,74.92
2019-01-18T07:01:25.659Z,74.30
2019-01-18T07:03:56.308Z,74.03
2019-01-18T07:06:27.509Z,74.08
2019-01-18T07:09:00.635Z,74.46
2019-01-18T07:11:31.408Z,73.69
2019-01-18T07:14:03.651Z,73.85
2019-01-18T07:16:36.275Z,73.59
2019-01-18T07:19:06.766Z,73.81
2019-01-18T07:21:37.542Z,74.19
2019-01-18T07:24:11.614Z,74.47
2019-01-18T07:26:42.308Z,73.79
2019-01-18T07:29:13.088Z,73.61
2019-01-18T07:31:43.707Z,74.01
2019-01-18T07:34:14.390Z,74.29
2019-01-18T07:36:47.269Z,73.82
2019-01-18T07:39:22.320Z,75.28
2019-01-18T07:41:49.891Z,73.54
2019-01-18T07:44:20.639Z,73.61
2019-01-18T07:46:51.331Z,73.93
2019-01-18T07:49:22.053Z,74.19
2019-01-18T07:51:52.678Z,74.37
2019-01-18T07:54:23.315Z,74.34
2019-01-18T07:56:55.843Z,74.74
2019-01-18T07:59:26.155Z,74.58
2019-01-18T08:01:56.823Z,74.28
2019-01-18T08:04:27.471Z,73.66
2019-01-18T08:06:58.116Z,74.71
2019-01-18T08:09:31.996Z,73.80
2019-01-18T08:12:02.543Z,73.86
2019-01-18T08:14:33.164Z,73.93
2019-01-18T08:17:03.803Z,73.85
2019-01-18T08:19:34.434Z,74.72
2019-01-18T08:22:05.038Z,75.26
2019-01-18T08:24:35.698Z,76.06
2019-01-18T08:27:08.069Z,76.60
2019-01-18T08:29:38.704Z,76.56
2019-01-18T08:32:09.439Z,76.73
2019-01-18T08:34:40.055Z,77.02
2019-01-18T08:37:10.694Z,76.75
2019-01-18T08:39:41.241Z,77.02
2019-01-18T08:42:13.656Z,77.15
2019-01-18T08:44:44.241Z,77.28
2019-01-18T08:47:14.972Z,77.31
2019-01-18T08:49:46.351Z,77.37
2019-01-18T08:52:17.043Z,77.39
2019-01-18T08:54:47.264Z,77.30
2019-01-18T08:57:18.931Z,77.42
2019-01-18T08:59:49.593Z,77.96
2019-01-18T09:02:21.763Z,77.81
2019-01-18T09:04:55.365Z,76.87
2019-01-18T09:07:26.012Z,76.69
2019-01-18T09:09:56.730Z,77.05
2019-01-18T09:12:27.420Z,77.48
2019-01-18T09:15:00.758Z,77.10
2019-01-18T09:17:31.487Z,76.25
2019-01-18T09:20:05.058Z,76.07
2019-01-18T09:22:35.678Z,76.38
2019-01-18T09:25:06.644Z,76.35
2019-01-18T09:27:38.007Z,76.34
2019-01-18T09:30:14.444Z,76.10
2019-01-18T09:32:45.070Z,76.78
2019-01-18T09:35:18.460Z,77.00
2019-01-18T09:37:49.031Z,75.73
2019-01-18T09:40:22.394Z,75.93
2019-01-18T09:42:52.650Z,75.62
2019-01-18T09:45:23.281Z,75.49
2019-01-18T09:47:53.880Z,75.79
2019-01-18T09:50:27.088Z,75.58
2019-01-18T09:52:58.209Z,75.78
2019-01-18T09:55:28.770Z,75.35
2019-01-18T09:58:02.851Z,75.66
2019-01-18T10:00:37.225Z,75.31
2019-01-18T10:03:07.811Z,75.41
2019-01-18T10:05:38.336Z,76.21
2019-01-18T10:08:09.855Z,74.58
2019-01-18T10:10:40.643Z,74.40
2019-01-18T10:13:11.240Z,73.98
2019-01-18T10:15:44.722Z,73.91
2019-01-18T10:18:15.375Z,74.02
2019-01-18T10:20:45.906Z,74.61
2019-01-18T10:23:18.087Z,73.84
2019-01-18T10:25:48.637Z,74.73
2019-01-18T10:28:19.269Z,74.04
2019-01-18T10:30:49.772Z,73.78
2019-01-18T10:33:20.412Z,73.04
2019-01-18T10:35:50.934Z,72.74
2019-01-18T10:38:21.581Z,73.05
2019-01-18T10:40:52.214Z,72.96
2019-01-18T10:43:24.555Z,72.82
2019-01-18T10:45:55.775Z,72.87
2019-01-18T10:48:26.957Z,72.66
2019-01-18T10:50:57.675Z,71.82
2019-01-18T10:53:28.325Z,72.25
2019-01-18T10:55:58.956Z,71.97
2019-01-18T10:58:32.478Z,72.36
2019-01-18T11:01:03.105Z,71.34
2019-01-18T11:03:33.748Z,71.50
2019-01-18T11:06:04.355Z,71.32
2019-01-18T11:08:37.050Z,72.27
2019-01-18T11:11:07.649Z,71.39
2019-01-18T11:13:38.154Z,71.10
2019-01-18T11:16:08.764Z,70.99
2019-01-18T11:18:39.367Z,71.39
2019-01-18T11:21:10.025Z,70.62
2019-01-18T11:23:40.305Z,70.65
2019-01-18T11:26:10.895Z,70.41
2019-01-18T11:28:41.967Z,71.19
2019-01-18T11:31:15.814Z,70.78
2019-01-18T11:33:46.533Z,70.87
2019-01-18T11:36:17.185Z,70.31
2019-01-18T11:38:47.797Z,70.61
2019-01-18T11:41:19.965Z,69.59
2019-01-18T11:43:50.208Z,69.13
2019-01-18T11:46:20.727Z,68.91
2019-01-18T11:48:51.358Z,68.56
2019-01-18T11:51:23.687Z,68.47
2019-01-18T11:53:54.348Z,69.06
2019-01-18T11:56:24.991Z,68.77
2019-01-18T11:58:55.632Z,68.63
2019-01-18T12:01:25.966Z,68.29
2019-01-18T12:03:56.463Z,68.31
2019-01-18T12:06:27.006Z,67.70
2019-01-18T12:08:57.527Z,68.31
2019-01-18T12:11:28.053Z,67.84
2019-01-18T12:13:58.735Z,68.15
2019-01-18T12:16:32.491Z,67.63
2019-01-18T12:19:03.320Z,67.47
2019-01-18T12:21:37.206Z,67.32
2019-01-18T12:24:06.950Z,68.04
2019-01-18T12:26:37.506Z,67.68
2019-01-18T12:29:08.218Z,67.43
2019-01-18T12:31:40.475Z,66.94
2019-01-18T12:34:11.031Z,67.40
2019-01-18T12:36:41.558Z,67.11
2019-01-18T12:39:13.116Z,65.64
2019-01-18T12:41:43.788Z,66.93
2019-01-18T12:44:14.502Z,65.78
2019-01-18T12:46:45.124Z,65.72
2019-01-18T12:49:18.857Z,65.70
2019-01-18T12:51:50.108Z,66.26
2019-01-18T12:54:20.725Z,66.30
2019-01-18T12:56:51.297Z,65.10
2019-01-18T12:59:21.826Z,64.92
2019-01-18T13:01:52.365Z,65.31
2019-01-18T13:04:23.259Z,65.33
2019-01-18T13:06:53.787Z,65.84
2019-01-18T13:09:24.359Z,66.46
2019-01-18T13:11:54.889Z,66.52
2019-01-18T13:14:25.111Z,66.00
2019-01-18T13:16:55.774Z,66.18
2019-01-18T13:19:27.911Z,65.99
2019-01-18T13:21:58.601Z,66.15
2019-01-18T13:24:31.207Z,66.09
2019-01-18T13:27:01.855Z,66.34
2019-01-18T13:29:32.506Z,66.44
2019-01-18T13:32:03.240Z,66.25
2019-01-18T13:34:33.990Z,66.52
2019-01-18T13:37:04.688Z,66.34
2019-01-18T13:39:35.324Z,66.27
2019-01-18T13:42:05.864Z,66.19
2019-01-18T13:44:43.398Z,66.34
2019-01-18T13:47:09.724Z,66.31
2019-01-18T13:49:40.184Z,66.58
2019-01-18T13:52:10.744Z,66.35
2019-01-18T13:54:41.381Z,67.28
2019-01-18T13:57:12.355Z,67.49
2019-01-18T13:59:45.732Z,67.14
2019-01-18T14:02:16.318Z,66.71
2019-01-18T14:04:47.753Z,66.39
2019-01-18T14:07:20.364Z,66.26
2019-01-18T14:09:50.911Z,66.63
2019-01-18T14:12:21.831Z,66.83
2019-01-18T14:14:52.985Z,66.86
2019-01-18T14:17:23.718Z,66.89
2019-01-18T14:19:54.674Z,67.03
2019-01-18T14:22:25.693Z,66.86
2019-01-18T14:24:56.324Z,66.55
2019-01-18T14:27:26.998Z,66.69
2019-01-18T14:29:57.729Z,66.99
2019-01-18T14:32:29.733Z,67.10
2019-01-18T14:35:00.031Z,67.03
2019-01-18T14:37:30.604Z,66.15
2019-01-18T14:40:01.124Z,66.73
2019-01-18T14:42:33.504Z,66.62
2019-01-18T14:45:06.043Z,66.86
2019-01-18T14:47:36.601Z,66.40
2019-01-18T14:50:13.507Z,67.25
2019-01-18T14:52:46.523Z,67.42
2019-01-18T14:55:18.591Z,67.85
2019-01-18T14:57:49.269Z,68.16
2019-01-18T15:00:23.073Z,67.96
2019-01-18T15:02:54.762Z,67.15
2019-01-18T15:05:25.391Z,66.87
2019-01-18T15:07:56.106Z,66.68
2019-01-18T15:10:26.741Z,67.60
2019-01-18T15:13:03.252Z,67.53
2019-01-18T15:15:34.511Z,66.98
2019-01-18T15:18:06.828Z,66.56
2019-01-18T15:20:40.350Z,67.34
2019-01-18T15:23:11.082Z,67.60
2019-01-18T15:25:41.695Z,67.98
2019-01-18T15:28:13.761Z,67.65
2019-01-18T15:30:44.397Z,67.64
2019-01-18T15:33:15.130Z,68.35
2019-01-18T15:35:45.759Z,67.40
2019-01-18T15:38:16.408Z,68.48
2019-01-18T15:40:47.658Z,67.80
2019-01-18T15:43:19.606Z,67.65
2019-01-18T15:45:50.231Z,67.94
2019-01-18T15:48:21.453Z,68.55
2019-01-18T15:50:52.211Z,68.79
2019-01-18T15:53:22.847Z,68.68
2019-01-18T15:55:53.491Z,68.81
2019-01-18T15:58:24.082Z,68.97
2019-01-18T16:00:55.312Z,68.47
2019-01-18T16:03:26.022Z,68.24
2019-01-18T16:05:56.349Z,68.02
2019-01-18T16:08:27.061Z,68.02
2019-01-18T16:10:59.409Z,67.99
2019-01-18T16:13:30.127Z,67.47
2019-01-18T16:16:03.491Z,67.90
2019-01-18T16:18:34.080Z,68.50
2019-01-18T16:21:04.753Z,67.60
2019-01-18T16:23:35.331Z,66.92
2019-01-18T16:26:05.990Z,67.27
2019-01-18T16:28:37.351Z,68.51
2019-01-18T16:31:09.785Z,67.89
2019-01-18T16:33:40.426Z,67.76
2019-01-18T16:36:11.039Z,67.32
2019-01-18T16:38:44.234Z,68.30
2019-01-18T16:41:15.896Z,68.53
2019-01-18T16:43:46.543Z,69.47
2019-01-18T16:46:17.183Z,69.55
2019-01-18T16:48:47.718Z,70.15
2019-01-18T16:51:18.358Z,69.71
2019-01-18T16:53:49.058Z,69.74
2019-01-18T16:56:19.708Z,70.54
2019-01-18T16:58:50.330Z,70.53
2019-01-18T17:01:21.186Z,70.21
2019-01-18T17:03:53.838Z,71.23
2019-01-18T17:06:24.387Z,70.12
2019-01-18T17:08:55.131Z,71.12
2019-01-18T17:11:25.767Z,70.04
2019-01-18T17:13:56.908Z,71.23
2019-01-18T17:16:27.570Z,70.59
2019-01-18T17:18:58.145Z,70.29
2019-01-18T17:21:28.775Z,70.65
2019-01-18T17:23:59.943Z,70.98
2019-01-18T17:26:32.373Z,71.40
2019-01-18T17:29:02.944Z,72.62
2019-01-18T17:31:42.248Z,72.61
2019-01-18T17:34:12.970Z,73.36
2019-01-18T17:36:45.972Z,74.07
2019-01-18T17:39:22.966Z,74.24
2019-01-18T17:41:59.474Z,74.42
2019-01-18T17:44:55.786Z,75.51
2019-01-18T17:47:47.451Z,78.51
2019-01-18T17:50:40.795Z,79.66
2019-01-18T17:53:38.825Z,80.10
2019-01-18T17:56:32.033Z,80.13
2019-01-18T17:59:30.676Z,79.53
2019-01-18T18:02:26.320Z,77.96
2019-01-18T18:05:09.249Z,77.06
2019-01-18T18:07:55.887Z,76.55
2019-01-18T18:10:45.891Z,76.69
2019-01-18T18:13:29.350Z,76.50
2019-01-18T18:16:31.421Z,76.36
2019-01-18T18:19:17.090Z,76.62
2019-01-18T18:22:10.596Z,77.08
2019-01-18T18:24:47.183Z,77.91
2019-01-18T18:27:35.295Z,78.41
2019-01-18T18:30:21.174Z,79.34
2019-01-18T18:33:16.190Z,79.45
2019-01-18T18:35:52.976Z,80.25
2019-01-18T18:38:38.846Z,80.55
2019-01-18T18:41:24.536Z,80.38
2019-01-18T18:44:18.000Z,80.72
2019-01-18T18:47:04.098Z,81.04
2019-01-18T18:50:06.788Z,80.70
2019-01-18T18:52:40.792Z,80.68
2019-01-18T18:55:34.097Z,80.70
2019-01-18T18:58:22.247Z,80.63
2019-01-18T19:01:12.311Z,80.72
2019-01-18T19:04:08.467Z,81.31
2019-01-18T19:07:03.713Z,80.96
2019-01-18T19:09:43.360Z,81.02
2019-01-18T19:12:20.037Z,81.39
2019-01-18T19:15:28.664Z,81.02
2019-01-18T19:18:20.789Z,81.52
2019-01-18T19:21:17.920Z,80.94
2019-01-18T19:23:57.894Z,80.91
2019-01-18T19:26:45.122Z,80.29
2019-01-18T19:29:35.401Z,80.21
2019-01-18T19:32:27.714Z,80.06
2019-01-18T19:35:07.912Z,79.95
2019-01-18T19:37:49.998Z,80.01
2019-01-18T19:40:32.736Z,79.83
2019-01-18T19:43:23.055Z,79.80
2019-01-18T19:46:02.556Z,79.63
2019-01-18T19:49:00.313Z,79.98
2019-01-18T19:51:37.249Z,79.94
2019-01-18T19:54:16.944Z,79.84
2019-01-18T19:57:07.580Z,79.37
2019-01-18T19:59:47.213Z,79.34
2019-01-18T20:02:23.659Z,79.23
2019-01-18T20:05:06.372Z,79.75
2019-01-18T20:07:55.267Z,79.38
2019-01-18T20:10:32.128Z,79.48
2019-01-18T20:13:32.959Z,78.99
2019-01-18T20:16:09.768Z,79.21
2019-01-18T20:18:52.765Z,79.31
2019-01-18T20:21:26.755Z,78.75
2019-01-18T20:24:26.282Z,77.90
2019-01-18T20:27:05.668Z,78.54
2019-01-18T20:30:11.198Z,77.87
2019-01-18T20:33:07.205Z,78.80
2019-01-18T20:35:56.134Z,79.07
2019-01-18T20:38:49.446Z,78.46
2019-01-18T20:41:32.647Z,77.92
2019-01-18T20:44:35.425Z,77.60
2019-01-18T20:47:32.928Z,77.88
2019-01-18T20:50:15.870Z,78.55
2019-01-18T20:53:04.683Z,78.59
2019-01-18T20:55:47.277Z,77.99
2019-01-18T20:58:28.043Z,77.94
2019-01-18T21:01:38.517Z,77.39
2019-01-18T21:04:33.256Z,77.32
2019-01-18T21:07:23.935Z,77.17
2019-01-18T21:10:10.232Z,76.56
2019-01-18T21:12:59.197Z,76.77
2019-01-18T21:15:51.011Z,75.93
2019-01-18T21:18:40.247Z,76.56
2019-01-18T21:21:20.345Z,77.11
2019-01-18T21:23:59.988Z,77.19
2019-01-18T21:26:42.795Z,77.01
2019-01-18T21:29:22.316Z,77.17
2019-01-18T21:31:56.255Z,76.65
2019-01-18T21:34:39.266Z,76.57
2019-01-18T21:37:25.928Z,76.16
2019-01-18T21:40:02.667Z,76.56
2019-01-18T21:42:42.488Z,75.80
2019-01-18T21:45:22.234Z,74.19
2019-01-18T21:47:58.774Z,74.24
2019-01-18T21:50:32.596Z,74.25
2019-01-18T21:53:26.187Z,73.69
2019-01-18T21:56:18.449Z,74.63
2019-01-18T21:58:52.478Z,74.75
2019-01-18T22:01:29.232Z,74.68
2019-01-18T22:04:08.873Z,74.42
2019-01-18T22:06:57.586Z,73.47
2019-01-18T22:09:34.042Z,73.92
2019-01-18T22:12:39.298Z,74.02
2019-01-18T22:15:19.416Z,73.67
2019-01-18T22:17:58.281Z,73.38
2019-01-18T22:20:48.713Z,73.72
2019-01-18T22:23:34.680Z,74.15
2019-01-18T22:26:17.395Z,74.29
2019-01-18T22:28:51.302Z,74.27
2019-01-18T22:31:47.835Z,74.11
2019-01-18T22:34:30.538Z,74.45
2019-01-18T22:37:15.740Z,75.01
2019-01-18T22:39:55.356Z,74.47
2019-01-18T22:42:47.947Z,74.43
2019-01-18T22:45:24.566Z,74.23
2019-01-18T22:48:14.784Z,74.65
2019-01-18T22:50:57.189Z,75.19
2019-01-18T22:53:31.199Z,75.14
2019-01-18T22:56:05.015Z,74.92
2019-01-18T22:58:44.449Z,75.46
2019-01-18T23:01:31.562Z,75.24
2019-01-18T23:04:25.125Z,75.28
2019-01-18T23:07:16.876Z,75.33
2019-01-18T23:09:50.743Z,75.18
2019-01-18T23:12:24.660Z,76.06
2019-01-18T23:15:21.020Z,75.51
2019-01-18T23:17:54.920Z,75.69
2019-01-18T23:20:40.818Z,75.25
2019-01-18T23:23:17.475Z,74.27
2019-01-18T23:25:57.219Z,74.52
2019-01-18T23:28:47.418Z,74.66
2019-01-18T23:31:23.878Z,75.20
2019-01-18T23:33:57.791Z,75.49
2019-01-18T23:36:31.708Z,74.59
2019-01-18T23:39:17.303Z,73.66
2019-01-18T23:41:59.786Z,74.68
2019-01-18T23:44:57.850Z,74.55
2019-01-18T23:47:37.803Z,73.97
2019-01-18T23:50:20.448Z,74.32
2019-01-18T23:52:57.339Z,74.53
2019-01-18T23:55:51.425Z,74.84
2019-01-18T23:58:28.260Z,74.49
